This is the latest recevied weather packets stored in our database for station/object PP5ABU-13. If no packets are shown the sender has not sent any weather packets the latest 10 day(s).
| Time | Temp. | Humidity | Pressure | Rain* | Wind** | Luminosity | Snow |
|---|---|---|---|---|---|---|---|
| 1777712405 | 19.44° C | 99% | 1013.6 hPa | 6.35 mm | - | - | - |
| 1777711505 | 20° C | 92% | 1014.7 hPa | 3.05 mm | - | - | - |
| 1777710604 | 21.67° C | 83% | 1012.5 hPa | 0 mm | - | - | - |
| 1777709704 | 21.67° C | 84% | 1012.2 hPa | 0 mm | - | - | - |
| 1777708805 | 21.67° C | 85% | 1012.2 hPa | 0 mm | - | - | - |
| 1777707904 | 21.67° C | 89% | 1012.2 hPa | 0 mm | - | - | - |
| 1777707005 | 21.67° C | 91% | 1012.2 hPa | 0 mm | - | - | - |
| 1777706104 | 22.22° C | 91% | 1012.1 hPa | 0 mm | - | - | - |
| 1777705205 | 22.78° C | 91% | 1012 hPa | 0 mm | - | - | - |
| 1777704304 | 22.78° C | 90% | 1012.4 hPa | 0 mm | - | - | - |
| 1777703404 | 22.78° C | 90% | 1012.1 hPa | 0 mm | - | - | - |
| 1777702505 | 22.22° C | 92% | 1012.2 hPa | 0 mm | - | - | - |
| 1777701604 | 22.22° C | 92% | 1012.1 hPa | 0 mm | - | - | - |
| 1777700705 | 22.78° C | 92% | 1012 hPa | 0 mm | - | - | - |
| 1777699804 | 22.22° C | 96% | 1012.2 hPa | 0 mm | - | - | - |
| 1777698904 | 22.22° C | 97% | 1012.1 hPa | 0 mm | - | - | - |
| 1777698004 | 22.22° C | 96% | 1012 hPa | 0 mm | - | - | - |
| 1777697104 | 22.22° C | 94% | 1012.4 hPa | 0 mm | - | - | - |
| 1777696204 | 22.78° C | 93% | 1012.4 hPa | 0 mm | - | - | - |
| 1777695304 | 22.78° C | 92% | 1012.7 hPa | 0 mm | - | - | - |
| 1777694405 | 22.78° C | 92% | 1012.7 hPa | 0 mm | - | - | - |
| 1777693504 | 22.78° C | 93% | 1012.4 hPa | 0 mm | - | - | - |
| 1777692604 | 22.78° C | 93% | 1012.5 hPa | 0 mm | - | - | - |
| 1777691704 | 22.78° C | 93% | 1012.3 hPa | 0 mm | - | - | - |
| 1777690804 | 22.78° C | 93% | 1012.6 hPa | 0 mm | - | - | - |
* Rain latest hour (hover to see other rain measurements)
** Current wind speed in m/s (hover to see current wind gust speed)